Time,TemperatureF,DewpointF,PressureIn,WindDirection,WindDirectionDegrees,WindSpeedMPH,WindSpeedGustMPH,Humidity,HourlyPrecipIn,Conditions,Clouds,dailyrainin,SoftwareType,DateUTC
2013-05-02 00:08:00,64.2,60.0,29.92,East,90,5.4,-999.0,86,0.00,,,0.04,open2300 v1.10,2013-05-02 05:08:00,
2013-05-02 00:13:00,64.2,60.0,29.92,ESE,112,2.2,-999.0,86,0.00,,,0.04,open2300 v1.10,2013-05-02 05:13:00,
2013-05-02 00:19:00,64.0,59.8,29.92,ESE,112,5.8,-999.0,86,0.00,,,0.04,open2300 v1.10,2013-05-02 05:19:00,
2013-05-02 00:29:00,64.0,60.1,29.92,ESE,112,0.0,-999.0,87,0.00,,,0.04,open2300 v1.10,2013-05-02 05:29:00,
2013-05-02 00:34:00,64.0,60.1,29.92,ESE,112,0.7,-999.0,87,0.00,,,0.04,open2300 v1.10,2013-05-02 05:34:00,
2013-05-02 00:39:00,64.0,60.1,29.92,East,90,6.0,-999.0,87,0.00,,,0.04,open2300 v1.10,2013-05-02 05:39:00,
2013-05-02 00:49:00,63.9,60.3,29.92,ESE,112,6.3,-999.0,88,0.00,,,0.04,open2300 v1.10,2013-05-02 05:49:00,
2013-05-02 00:54:00,63.9,60.3,29.92,ESE,112,0.0,-999.0,88,0.00,,,0.04,open2300 v1.10,2013-05-02 05:54:00,
2013-05-02 00:59:00,63.7,60.1,29.92,ESE,112,0.0,-999.0,88,0.00,,,0.04,open2300 v1.10,2013-05-02 05:59:00,
2013-05-02 01:09:00,63.7,60.1,29.92,ESE,112,0.0,-999.0,88,0.00,,,0.04,open2300 v1.10,2013-05-02 06:09:00,
2013-05-02 01:18:00,64.0,60.5,29.92,ESE,112,0.0,-999.0,88,0.00,,,0.04,open2300 v1.10,2013-05-02 06:18:00,
2013-05-02 01:24:00,63.9,60.3,29.91,ESE,112,0.0,-999.0,88,0.00,,,0.04,open2300 v1.10,2013-05-02 06:24:00,
2013-05-02 01:29:00,63.9,60.3,29.91,ESE,112,2.7,-999.0,88,0.00,,,0.04,open2300 v1.10,2013-05-02 06:29:00,
2013-05-02 01:34:00,63.9,60.3,29.91,ESE,112,2.0,-999.0,88,0.02,,,0.06,open2300 v1.10,2013-05-02 06:34:00,
2013-05-02 01:39:00,64.0,60.5,29.91,ESE,112,0.0,-999.0,88,0.02,,,0.06,open2300 v1.10,2013-05-02 06:39:00,
2013-05-02 01:44:00,63.9,60.3,29.91,ESE,112,0.0,-999.0,88,0.02,,,0.06,open2300 v1.10,2013-05-02 06:44:00,
2013-05-02 01:49:00,64.0,60.8,29.91,ESE,112,0.0,-999.0,89,0.02,,,0.06,open2300 v1.10,2013-05-02 06:49:00,
2013-05-02 01:54:00,63.9,60.6,29.91,ESE,112,0.0,-999.0,89,0.02,,,0.06,open2300 v1.10,2013-05-02 06:54:00,
2013-05-02 01:59:00,64.0,60.8,29.91,ESE,112,0.0,-999.0,89,0.02,,,0.06,open2300 v1.10,2013-05-02 06:59:00,
2013-05-02 02:08:00,64.0,60.8,29.91,ESE,112,1.8,-999.0,89,0.02,,,0.06,open2300 v1.10,2013-05-02 07:08:00,
2013-05-02 02:13:00,64.0,60.8,29.90,ESE,112,0.0,-999.0,89,0.02,,,0.06,open2300 v1.10,2013-05-02 07:13:00,
2013-05-02 02:18:00,64.0,60.8,29.89,ESE,112,1.3,-999.0,89,0.02,,,0.06,open2300 v1.10,2013-05-02 07:18:00,
2013-05-02 02:24:00,64.0,60.8,29.89,ESE,112,0.0,-999.0,89,0.02,,,0.06,open2300 v1.10,2013-05-02 07:24:00,
2013-05-02 02:29:00,64.0,60.8,29.89,ESE,112,1.3,-999.0,89,0.00,,,0.06,open2300 v1.10,2013-05-02 07:29:00,
2013-05-02 02:34:00,64.0,60.8,29.89,ESE,112,0.0,-999.0,89,0.00,,,0.06,open2300 v1.10,2013-05-02 07:34:00,
2013-05-02 02:39:00,64.0,60.8,29.89,ESE,112,0.0,-999.0,89,0.00,,,0.06,open2300 v1.10,2013-05-02 07:39:00,
2013-05-02 02:44:00,64.0,60.8,29.88,ESE,112,0.0,-999.0,89,0.00,,,0.06,open2300 v1.10,2013-05-02 07:44:00,
2013-05-02 02:54:00,64.0,60.8,29.88,ESE,112,2.7,-999.0,89,0.00,,,0.06,open2300 v1.10,2013-05-02 07:54:00,
2013-05-02 03:03:00,64.0,60.8,29.89,ESE,112,0.0,-999.0,89,0.00,,,0.06,open2300 v1.10,2013-05-02 08:03:00,
2013-05-02 03:08:00,64.0,60.8,29.89,SE,135,0.0,-999.0,89,0.00,,,0.06,open2300 v1.10,2013-05-02 08:08:00,
2013-05-02 03:13:00,64.0,60.8,29.89,East,90,1.1,-999.0,89,0.00,,,0.06,open2300 v1.10,2013-05-02 08:13:00,
2013-05-02 03:18:00,64.0,60.8,29.89,ESE,112,0.4,-999.0,89,0.00,,,0.06,open2300 v1.10,2013-05-02 08:18:00,
2013-05-02 03:24:00,64.0,60.8,29.89,ESE,112,0.0,-999.0,89,0.00,,,0.06,open2300 v1.10,2013-05-02 08:24:00,
2013-05-02 03:29:00,64.0,60.8,29.89,SE,135,3.8,-999.0,89,0.00,,,0.06,open2300 v1.10,2013-05-02 08:29:00,
2013-05-02 03:34:00,64.0,60.8,29.89,SE,135,0.0,-999.0,89,0.00,,,0.06,open2300 v1.10,2013-05-02 08:34:00,
2013-05-02 03:39:00,64.0,60.8,29.89,ESE,112,0.0,-999.0,89,0.00,,,0.06,open2300 v1.10,2013-05-02 08:39:00,
2013-05-02 03:49:00,64.0,60.8,29.89,ESE,112,0.0,-999.0,89,0.00,,,0.06,open2300 v1.10,2013-05-02 08:49:00,
2013-05-02 03:54:00,64.0,60.8,29.89,ESE,112,0.0,-999.0,89,0.00,,,0.06,open2300 v1.10,2013-05-02 08:54:00,
2013-05-02 03:59:00,64.2,61.0,29.89,ESE,112,0.0,-999.0,89,0.00,,,0.06,open2300 v1.10,2013-05-02 08:59:00,
2013-05-02 04:08:00,64.2,61.0,29.90,ESE,112,0.0,-999.0,89,0.00,,,0.06,open2300 v1.10,2013-05-02 09:08:00,
2013-05-02 04:13:00,64.2,61.0,29.90,ESE,112,0.0,-999.0,89,0.00,,,0.06,open2300 v1.10,2013-05-02 09:13:00,
2013-05-02 04:18:00,64.2,61.0,29.90,ESE,112,0.0,-999.0,89,0.00,,,0.06,open2300 v1.10,2013-05-02 09:18:00,
2013-05-02 04:24:00,64.2,61.0,29.90,ESE,112,0.0,-999.0,89,0.00,,,0.06,open2300 v1.10,2013-05-02 09:24:00,
2013-05-02 04:29:00,64.2,61.0,29.90,ESE,112,0.0,-999.0,89,0.00,,,0.06,open2300 v1.10,2013-05-02 09:29:00,
2013-05-02 04:34:00,64.2,61.0,29.90,SE,135,0.0,-999.0,89,0.00,,,0.06,open2300 v1.10,2013-05-02 09:34:00,
2013-05-02 04:39:00,64.2,61.0,29.90,SE,135,0.0,-999.0,89,0.00,,,0.06,open2300 v1.10,2013-05-02 09:39:00,
2013-05-02 04:49:00,64.2,61.0,29.90,SE,135,0.0,-999.0,89,0.00,,,0.06,open2300 v1.10,2013-05-02 09:49:00,
2013-05-02 04:54:00,64.2,61.0,29.90,SE,135,0.0,-999.0,89,0.00,,,0.06,open2300 v1.10,2013-05-02 09:54:00,
2013-05-02 04:59:00,64.2,61.0,29.90,SE,135,0.0,-999.0,89,0.00,,,0.06,open2300 v1.10,2013-05-02 09:59:00,
2013-05-02 05:08:00,64.2,61.0,29.91,SE,135,0.0,-999.0,89,0.00,,,0.06,open2300 v1.10,2013-05-02 10:08:00,
2013-05-02 05:13:00,64.2,61.0,29.91,SE,135,0.0,-999.0,89,0.00,,,0.06,open2300 v1.10,2013-05-02 10:13:00,
2013-05-02 05:18:00,64.2,61.0,29.91,SE,135,0.0,-999.0,89,0.00,,,0.06,open2300 v1.10,2013-05-02 10:18:00,
2013-05-02 05:24:00,64.2,61.0,29.91,SE,135,0.0,-999.0,89,0.00,,,0.06,open2300 v1.10,2013-05-02 10:24:00,
2013-05-02 05:29:00,64.2,61.0,29.91,SE,135,0.0,-999.0,89,0.00,,,0.06,open2300 v1.10,2013-05-02 10:29:00,
2013-05-02 05:34:00,64.2,61.0,29.91,SE,135,0.0,-999.0,89,0.00,,,0.06,open2300 v1.10,2013-05-02 10:34:00,
2013-05-02 05:39:00,64.4,61.2,29.92,SE,135,0.0,-999.0,89,0.00,,,0.06,open2300 v1.10,2013-05-02 10:39:00,
2013-05-02 05:44:00,64.6,61.3,29.92,SE,135,0.0,-999.0,89,0.00,,,0.06,open2300 v1.10,2013-05-02 10:44:00,
2013-05-02 05:49:00,64.6,61.3,29.92,SE,135,0.0,-999.0,89,0.00,,,0.06,open2300 v1.10,2013-05-02 10:49:00,
2013-05-02 05:54:00,64.6,61.3,29.93,SE,135,0.0,-999.0,89,0.00,,,0.06,open2300 v1.10,2013-05-02 10:54:00,
2013-05-02 05:59:00,64.6,61.3,29.93,SE,135,0.0,-999.0,89,0.00,,,0.06,open2300 v1.10,2013-05-02 10:59:00,
2013-05-02 06:08:00,64.8,61.5,29.93,SSE,157,0.0,-999.0,89,0.00,,,0.06,open2300 v1.10,2013-05-02 11:08:00,
2013-05-02 06:13:00,64.8,61.5,29.93,SE,135,0.0,-999.0,89,0.00,,,0.06,open2300 v1.10,2013-05-02 11:13:00,
2013-05-02 06:19:00,64.8,61.5,29.93,SE,135,0.0,-999.0,89,0.00,,,0.06,open2300 v1.10,2013-05-02 11:19:00,
2013-05-02 06:24:00,64.8,61.5,29.93,SSE,157,6.0,-999.0,89,0.00,,,0.06,open2300 v1.10,2013-05-02 11:24:00,
2013-05-02 06:29:00,64.9,61.5,29.94,SSE,157,1.1,-999.0,89,0.00,,,0.06,open2300 v1.10,2013-05-02 11:29:00,
2013-05-02 06:34:00,64.9,61.7,29.95,South,180,0.0,-999.0,89,0.00,,,0.06,open2300 v1.10,2013-05-02 11:34:00,
2013-05-02 06:39:00,64.9,61.7,29.94,South,180,0.0,-999.0,89,0.00,,,0.06,open2300 v1.10,2013-05-02 11:39:00,
2013-05-02 06:49:00,64.9,61.3,29.94,South,180,0.0,-999.0,88,0.00,,,0.06,open2300 v1.10,2013-05-02 11:49:00,
2013-05-02 06:54:00,65.1,61.5,29.94,SSE,157,0.0,-999.0,88,0.00,,,0.06,open2300 v1.10,2013-05-02 11:54:00,
2013-05-02 06:59:00,65.1,61.5,29.95,South,180,0.0,-999.0,88,0.00,,,0.06,open2300 v1.10,2013-05-02 11:59:00,
2013-05-02 07:08:00,65.1,61.5,29.95,South,180,0.0,-999.0,88,0.00,,,0.06,open2300 v1.10,2013-05-02 12:08:00,
2013-05-02 07:18:00,65.3,62.0,29.95,South,180,0.4,-999.0,89,0.00,,,0.06,open2300 v1.10,2013-05-02 12:18:00,
2013-05-02 07:23:00,65.3,62.0,29.96,South,180,4.5,-999.0,89,0.00,,,0.06,open2300 v1.10,2013-05-02 12:23:00,
2013-05-02 07:29:00,65.3,61.7,29.96,South,180,0.0,-999.0,88,0.00,,,0.06,open2300 v1.10,2013-05-02 12:29:00,
2013-05-02 07:34:00,65.5,61.8,29.96,South,180,0.0,-999.0,88,0.00,,,0.06,open2300 v1.10,2013-05-02 12:34:00,
2013-05-02 07:39:00,65.7,62.0,29.96,South,180,0.0,-999.0,88,0.00,,,0.06,open2300 v1.10,2013-05-02 12:39:00,
2013-05-02 08:13:00,65.7,61.7,29.97,South,180,3.8,-999.0,87,0.00,,,0.06,open2300 v1.10,2013-05-02 13:13:00,
2013-05-02 08:18:00,65.5,61.5,29.98,SSE,157,5.8,-999.0,87,0.00,,,0.06,open2300 v1.10,2013-05-02 13:18:00,
2013-05-02 08:24:00,65.3,61.3,29.98,SSW,202,5.1,-999.0,87,0.00,,,0.06,open2300 v1.10,2013-05-02 13:24:00,
2013-05-02 08:29:00,65.1,61.2,29.98,SE,135,0.0,-999.0,87,0.00,,,0.06,open2300 v1.10,2013-05-02 13:29:00,
2013-05-02 08:34:00,65.1,61.2,29.98,SSE,157,0.0,-999.0,87,0.00,,,0.06,open2300 v1.10,2013-05-02 13:34:00,
2013-05-02 08:39:00,65.1,61.2,29.98,SE,135,1.8,-999.0,87,0.00,,,0.06,open2300 v1.10,2013-05-02 13:39:00,
2013-05-02 08:44:00,65.1,61.2,29.98,SE,135,0.7,-999.0,87,0.00,,,0.06,open2300 v1.10,2013-05-02 13:44:00,
2013-05-02 08:49:00,65.1,61.2,29.98,SE,135,0.0,-999.0,87,0.00,,,0.06,open2300 v1.10,2013-05-02 13:49:00,
2013-05-02 08:54:00,65.1,61.2,29.98,SE,135,0.0,-999.0,87,0.00,,,0.06,open2300 v1.10,2013-05-02 13:54:00,
2013-05-02 08:59:00,65.1,61.2,29.98,South,180,0.0,-999.0,87,0.00,,,0.06,open2300 v1.10,2013-05-02 13:59:00,
2013-05-02 09:08:00,65.3,61.3,29.98,SE,135,0.0,-999.0,87,0.02,,,0.08,open2300 v1.10,2013-05-02 14:08:00,
2013-05-02 09:13:00,65.5,61.5,29.98,SE,135,0.0,-999.0,87,0.02,,,0.08,open2300 v1.10,2013-05-02 14:13:00,
2013-05-02 09:18:00,65.5,61.5,29.98,SSE,157,0.0,-999.0,87,0.02,,,0.08,open2300 v1.10,2013-05-02 14:18:00,
2013-05-02 09:24:00,65.8,61.8,29.98,SSE,157,0.0,-999.0,87,0.02,,,0.08,open2300 v1.10,2013-05-02 14:24:00,
2013-05-02 09:29:00,66.0,62.0,29.98,South,180,4.5,-999.0,87,0.02,,,0.08,open2300 v1.10,2013-05-02 14:29:00,
2013-05-02 09:34:00,66.6,62.2,29.98,ESE,112,6.5,-999.0,86,0.02,,,0.08,open2300 v1.10,2013-05-02 14:34:00,
2013-05-02 09:39:00,66.7,62.4,29.98,ESE,112,0.4,-999.0,86,0.02,,,0.08,open2300 v1.10,2013-05-02 14:39:00,
2013-05-02 09:44:00,67.1,62.4,29.98,South,180,6.7,-999.0,85,0.02,,,0.08,open2300 v1.10,2013-05-02 14:44:00,
2013-05-02 09:49:00,67.3,62.6,29.97,SE,135,0.0,-999.0,85,0.02,,,0.08,open2300 v1.10,2013-05-02 14:49:00,
2013-05-02 09:54:00,67.6,63.0,29.98,SE,135,0.0,-999.0,85,0.02,,,0.08,open2300 v1.10,2013-05-02 14:54:00,
2013-05-02 09:59:00,68.0,63.0,29.98,SE,135,2.2,-999.0,84,0.02,,,0.08,open2300 v1.10,2013-05-02 14:59:00,
2013-05-02 10:08:00,68.7,63.3,29.98,South,180,5.6,-999.0,83,0.00,,,0.06,open2300 v1.10,2013-05-02 15:08:00,
2013-05-02 10:13:00,68.9,63.2,29.98,South,180,0.0,-999.0,82,0.00,,,0.06,open2300 v1.10,2013-05-02 15:13:00,
2013-05-02 10:18:00,69.1,63.3,29.98,South,180,2.5,-999.0,82,0.00,,,0.06,open2300 v1.10,2013-05-02 15:18:00,
2013-05-02 10:24:00,69.4,63.7,29.99,South,180,7.4,-999.0,82,0.00,,,0.06,open2300 v1.10,2013-05-02 15:24:00,
2013-05-02 10:29:00,69.4,63.3,29.99,SSE,157,0.0,-999.0,81,0.00,,,0.06,open2300 v1.10,2013-05-02 15:29:00,
2013-05-02 10:34:00,69.3,63.2,29.99,SE,135,2.2,-999.0,81,0.00,,,0.06,open2300 v1.10,2013-05-02 15:34:00,
2013-05-02 10:39:00,69.3,63.2,29.98,South,180,0.0,-999.0,81,0.00,,,0.06,open2300 v1.10,2013-05-02 15:39:00,
2013-05-02 10:49:00,69.3,63.2,29.98,South,180,6.7,-999.0,81,0.00,,,0.06,open2300 v1.10,2013-05-02 15:49:00,
2013-05-02 10:54:00,69.3,62.8,29.98,SE,135,1.8,-999.0,80,0.00,,,0.06,open2300 v1.10,2013-05-02 15:54:00,
2013-05-02 10:59:00,68.9,62.5,29.98,SE,135,3.6,-999.0,80,0.00,,,0.06,open2300 v1.10,2013-05-02 15:59:00,
2013-05-02 11:08:00,68.5,62.5,29.99,SSE,157,0.0,-999.0,81,0.00,,,0.06,open2300 v1.10,2013-05-02 16:08:00,
2013-05-02 11:13:00,68.5,62.8,29.99,SSE,157,0.0,-999.0,82,0.00,,,0.06,open2300 v1.10,2013-05-02 16:13:00,
2013-05-02 11:24:00,68.2,62.5,30.00,SSE,157,0.0,-999.0,82,0.00,,,0.06,open2300 v1.10,2013-05-02 16:24:00,
2013-05-02 11:29:00,68.2,62.5,30.00,South,180,6.0,-999.0,82,0.00,,,0.06,open2300 v1.10,2013-05-02 16:29:00,
2013-05-02 11:34:00,68.0,62.7,30.00,South,180,0.0,-999.0,83,0.00,,,0.06,open2300 v1.10,2013-05-02 16:34:00,
2013-05-02 11:39:00,67.8,62.5,30.00,South,180,0.0,-999.0,83,0.00,,,0.06,open2300 v1.10,2013-05-02 16:39:00,
2013-05-02 11:49:00,68.2,62.8,29.99,SE,135,6.9,-999.0,83,0.02,,,0.08,open2300 v1.10,2013-05-02 16:49:00,
2013-05-02 11:54:00,67.8,62.5,29.99,SSE,157,0.0,-999.0,83,0.02,,,0.08,open2300 v1.10,2013-05-02 16:54:00,
2013-05-02 11:59:00,67.6,62.6,29.99,SE,135,6.3,-999.0,84,0.04,,,0.10,open2300 v1.10,2013-05-02 16:59:00,
2013-05-02 12:08:00,67.6,63.0,29.99,SE,135,0.0,-999.0,85,0.04,,,0.10,open2300 v1.10,2013-05-02 17:08:00,
2013-05-02 12:18:00,67.6,63.0,29.99,SE,135,0.0,-999.0,85,0.04,,,0.10,open2300 v1.10,2013-05-02 17:18:00,
2013-05-02 12:24:00,67.6,63.0,29.99,SE,135,0.0,-999.0,85,0.04,,,0.10,open2300 v1.10,2013-05-02 17:24:00,
2013-05-02 12:29:00,67.6,63.0,29.99,SE,135,0.0,-999.0,85,0.04,,,0.10,open2300 v1.10,2013-05-02 17:29:00,
2013-05-02 12:34:00,67.6,63.0,29.99,SE,135,0.0,-999.0,85,0.04,,,0.10,open2300 v1.10,2013-05-02 17:34:00,
2013-05-02 12:39:00,67.8,63.1,29.99,ESE,112,1.3,-999.0,85,0.04,,,0.10,open2300 v1.10,2013-05-02 17:39:00,
2013-05-02 12:44:00,67.6,63.0,29.99,South,180,2.5,-999.0,85,0.02,,,0.10,open2300 v1.10,2013-05-02 17:44:00,
2013-05-02 12:49:00,67.8,63.1,29.99,SSE,157,0.0,-999.0,85,0.02,,,0.10,open2300 v1.10,2013-05-02 17:49:00,
2013-05-02 12:54:00,68.0,63.3,29.98,SE,135,0.0,-999.0,85,0.00,,,0.10,open2300 v1.10,2013-05-02 17:54:00,
2013-05-02 12:59:00,68.2,63.2,29.99,SE,135,0.0,-999.0,84,0.00,,,0.10,open2300 v1.10,2013-05-02 17:59:00,
2013-05-02 13:08:00,68.2,63.2,29.99,ESE,112,3.8,-999.0,84,0.00,,,0.10,open2300 v1.10,2013-05-02 18:08:00,
2013-05-02 13:13:00,68.2,63.2,29.99,SE,135,0.0,-999.0,84,0.00,,,0.10,open2300 v1.10,2013-05-02 18:13:00,
2013-05-02 13:18:00,68.2,63.2,29.99,ESE,112,0.0,-999.0,84,0.00,,,0.10,open2300 v1.10,2013-05-02 18:18:00,
2013-05-02 13:24:00,68.2,63.2,29.99,SE,135,6.7,-999.0,84,0.00,,,0.10,open2300 v1.10,2013-05-02 18:24:00,
2013-05-02 13:34:00,68.4,63.3,29.99,ESE,112,0.0,-999.0,84,0.00,,,0.10,open2300 v1.10,2013-05-02 18:34:00,
2013-05-02 13:39:00,68.5,63.5,29.98,ESE,112,0.0,-999.0,84,0.00,,,0.10,open2300 v1.10,2013-05-02 18:39:00,
2013-05-02 13:44:00,68.4,63.3,29.98,SE,135,0.9,-999.0,84,0.00,,,0.10,open2300 v1.10,2013-05-02 18:44:00,
2013-05-02 13:49:00,68.5,63.5,29.98,SE,135,0.0,-999.0,84,0.00,,,0.10,open2300 v1.10,2013-05-02 18:49:00,
2013-05-02 13:54:00,68.7,63.7,29.98,ESE,112,2.7,-999.0,84,0.00,,,0.10,open2300 v1.10,2013-05-02 18:54:00,
2013-05-02 13:59:00,68.7,63.7,29.98,ESE,112,0.9,-999.0,84,0.00,,,0.10,open2300 v1.10,2013-05-02 18:59:00,
2013-05-02 14:08:00,69.1,63.7,29.98,ESE,112,0.0,-999.0,83,0.00,,,0.10,open2300 v1.10,2013-05-02 19:08:00,
2013-05-02 14:13:00,69.3,63.8,29.98,ESE,112,0.0,-999.0,83,0.00,,,0.10,open2300 v1.10,2013-05-02 19:13:00,
2013-05-02 14:18:00,69.4,63.7,29.98,ESE,112,0.7,-999.0,82,0.00,,,0.10,open2300 v1.10,2013-05-02 19:18:00,
2013-05-02 14:24:00,69.4,63.7,29.98,ESE,112,4.9,-999.0,82,0.00,,,0.10,open2300 v1.10,2013-05-02 19:24:00,
2013-05-02 14:29:00,69.4,63.7,29.98,ESE,112,0.0,-999.0,82,0.00,,,0.10,open2300 v1.10,2013-05-02 19:29:00,
2013-05-02 14:34:00,69.4,63.7,29.98,SE,135,6.9,-999.0,82,0.00,,,0.10,open2300 v1.10,2013-05-02 19:34:00,
2013-05-02 14:39:00,69.3,63.5,29.98,SE,135,2.0,-999.0,82,0.00,,,0.10,open2300 v1.10,2013-05-02 19:39:00,
2013-05-02 14:49:00,69.4,64.0,29.98,ESE,112,4.5,-999.0,83,0.00,,,0.10,open2300 v1.10,2013-05-02 19:49:00,
2013-05-02 14:54:00,69.6,63.8,29.97,SE,135,6.9,-999.0,82,0.00,,,0.10,open2300 v1.10,2013-05-02 19:54:00,
2013-05-02 14:59:00,70.0,64.2,29.97,ESE,112,5.8,-999.0,82,0.00,,,0.10,open2300 v1.10,2013-05-02 19:59:00,
2013-05-02 15:08:00,70.7,64.6,29.97,ESE,112,0.0,-999.0,81,0.00,,,0.10,open2300 v1.10,2013-05-02 20:08:00,
2013-05-02 15:13:00,71.1,64.9,29.97,East,90,6.9,-999.0,81,0.00,,,0.10,open2300 v1.10,2013-05-02 20:13:00,
2013-05-02 15:18:00,71.2,64.8,29.96,ESE,112,6.5,-999.0,80,0.00,,,0.10,open2300 v1.10,2013-05-02 20:18:00,
2013-05-02 15:24:00,71.6,64.7,29.97,SSE,157,6.9,-999.0,79,0.00,,,0.10,open2300 v1.10,2013-05-02 20:24:00,
2013-05-02 15:29:00,72.0,65.1,29.96,East,90,8.3,-999.0,79,0.00,,,0.10,open2300 v1.10,2013-05-02 20:29:00,
2013-05-02 15:34:00,72.3,64.7,29.96,ESE,112,10.5,-999.0,77,0.00,,,0.10,open2300 v1.10,2013-05-02 20:34:00,
2013-05-02 15:39:00,72.5,64.5,29.95,SE,135,7.8,-999.0,76,0.00,,,0.10,open2300 v1.10,2013-05-02 20:39:00,
2013-05-02 15:44:00,72.7,64.7,29.95,ESE,112,7.8,-999.0,76,0.00,,,0.10,open2300 v1.10,2013-05-02 20:44:00,
2013-05-02 15:54:00,73.6,65.2,29.95,ESE,112,7.2,-999.0,75,0.00,,,0.10,open2300 v1.10,2013-05-02 20:54:00,
2013-05-02 15:59:00,73.9,65.2,29.95,East,90,4.5,-999.0,74,0.00,,,0.10,open2300 v1.10,2013-05-02 20:59:00,
2013-05-02 16:08:00,74.1,64.9,29.95,East,90,6.5,-999.0,73,0.00,,,0.08,open2300 v1.10,2013-05-02 21:08:00,
2013-05-02 16:13:00,74.1,65.3,29.95,ESE,112,3.8,-999.0,74,0.00,,,0.08,open2300 v1.10,2013-05-02 21:13:00,
2013-05-02 16:18:00,74.3,65.5,29.94,East,90,3.6,-999.0,74,0.00,,,0.08,open2300 v1.10,2013-05-02 21:18:00,
2013-05-02 16:24:00,74.5,65.3,29.95,SE,135,5.8,-999.0,73,0.00,,,0.08,open2300 v1.10,2013-05-02 21:24:00,
2013-05-02 16:29:00,74.8,65.6,29.94,SE,135,0.0,-999.0,73,0.00,,,0.08,open2300 v1.10,2013-05-02 21:29:00,
2013-05-02 16:34:00,75.0,65.4,29.95,East,90,4.0,-999.0,72,0.00,,,0.08,open2300 v1.10,2013-05-02 21:34:00,
2013-05-02 16:39:00,75.2,65.6,29.95,East,90,3.6,-999.0,72,0.00,,,0.08,open2300 v1.10,2013-05-02 21:39:00,
2013-05-02 16:49:00,75.0,65.4,29.94,ESE,112,6.9,-999.0,72,0.00,,,0.08,open2300 v1.10,2013-05-02 21:49:00,
2013-05-02 16:54:00,75.0,65.4,29.94,East,90,5.8,-999.0,72,0.00,,,0.08,open2300 v1.10,2013-05-02 21:54:00,
2013-05-02 16:59:00,74.5,64.9,29.95,East,90,1.6,-999.0,72,0.00,,,0.08,open2300 v1.10,2013-05-02 21:59:00,
2013-05-02 17:08:00,74.3,65.1,29.94,East,90,7.6,-999.0,73,0.00,,,0.08,open2300 v1.10,2013-05-02 22:08:00,
2013-05-02 17:18:00,74.1,64.9,29.94,SE,135,0.2,-999.0,73,0.00,,,0.08,open2300 v1.10,2013-05-02 22:18:00,
2013-05-02 17:24:00,73.9,64.8,29.94,ESE,112,5.4,-999.0,73,0.00,,,0.08,open2300 v1.10,2013-05-02 22:24:00,
2013-05-02 17:29:00,73.9,65.2,29.94,SE,135,2.0,-999.0,74,0.00,,,0.08,open2300 v1.10,2013-05-02 22:29:00,
2013-05-02 17:34:00,73.9,65.2,29.94,ESE,112,0.0,-999.0,74,0.00,,,0.08,open2300 v1.10,2013-05-02 22:34:00,
2013-05-02 17:44:00,74.1,65.7,29.95,ESE,112,0.0,-999.0,75,0.00,,,0.08,open2300 v1.10,2013-05-02 22:44:00,
2013-05-02 17:49:00,74.1,65.3,29.95,East,90,3.6,-999.0,74,0.00,,,0.08,open2300 v1.10,2013-05-02 22:49:00,
2013-05-02 17:54:00,73.9,64.8,29.95,ESE,112,0.4,-999.0,73,0.00,,,0.08,open2300 v1.10,2013-05-02 22:54:00,
2013-05-02 17:59:00,73.8,64.6,29.95,East,90,0.0,-999.0,73,0.00,,,0.08,open2300 v1.10,2013-05-02 22:59:00,
2013-05-02 18:08:00,73.8,64.6,29.95,SE,135,0.0,-999.0,73,0.00,,,0.08,open2300 v1.10,2013-05-02 23:08:00,
2013-05-02 18:13:00,73.8,64.6,29.95,ESE,112,0.7,-999.0,73,0.00,,,0.08,open2300 v1.10,2013-05-02 23:13:00,
2013-05-02 18:18:00,73.6,64.8,29.95,ESE,112,4.2,-999.0,74,0.00,,,0.08,open2300 v1.10,2013-05-02 23:18:00,
2013-05-02 18:24:00,73.2,64.5,29.95,ESE,112,4.7,-999.0,74,0.00,,,0.08,open2300 v1.10,2013-05-02 23:24:00,
2013-05-02 18:29:00,73.0,64.3,29.95,ESE,112,0.0,-999.0,74,0.00,,,0.08,open2300 v1.10,2013-05-02 23:29:00,
2013-05-02 18:34:00,72.9,64.1,29.95,South,180,4.9,-999.0,74,0.00,,,0.08,open2300 v1.10,2013-05-02 23:34:00,
2013-05-02 18:39:00,72.5,63.8,29.95,ESE,112,0.0,-999.0,74,0.00,,,0.08,open2300 v1.10,2013-05-02 23:39:00,
2013-05-02 18:49:00,71.6,63.6,29.95,ESE,112,0.0,-999.0,76,0.00,,,0.08,open2300 v1.10,2013-05-02 23:49:00,
2013-05-02 18:54:00,71.2,63.2,29.95,East,90,6.5,-999.0,76,0.00,,,0.08,open2300 v1.10,2013-05-02 23:54:00,
2013-05-02 18:59:00,70.7,63.5,29.95,East,90,6.9,-999.0,78,0.00,,,0.08,open2300 v1.10,2013-05-02 23:59:00,
2013-05-02 19:08:00,70.0,63.5,29.95,East,90,4.2,-999.0,80,0.00,,,0.08,open2300 v1.10,2013-05-03 00:08:00,
2013-05-02 19:13:00,69.6,63.2,29.96,ESE,112,4.9,-999.0,80,0.00,,,0.08,open2300 v1.10,2013-05-03 00:13:00,
2013-05-02 19:18:00,69.3,63.2,29.96,ESE,112,5.1,-999.0,81,0.00,,,0.08,open2300 v1.10,2013-05-03 00:18:00,
2013-05-02 19:24:00,68.9,63.2,29.96,ESE,112,4.7,-999.0,82,0.00,,,0.08,open2300 v1.10,2013-05-03 00:24:00,
2013-05-02 19:29:00,68.7,63.0,29.96,ESE,112,6.5,-999.0,82,0.00,,,0.08,open2300 v1.10,2013-05-03 00:29:00,
2013-05-02 19:34:00,68.5,63.2,29.96,ESE,112,2.9,-999.0,83,0.00,,,0.08,open2300 v1.10,2013-05-03 00:34:00,
2013-05-02 19:39:00,68.5,63.2,29.96,ESE,112,6.7,-999.0,83,0.00,,,0.08,open2300 v1.10,2013-05-03 00:39:00,
2013-05-02 19:44:00,68.4,63.0,29.97,ESE,112,6.3,-999.0,83,0.00,,,0.08,open2300 v1.10,2013-05-03 00:44:00,
2013-05-02 19:49:00,68.4,63.0,29.97,ESE,112,0.0,-999.0,83,0.00,,,0.08,open2300 v1.10,2013-05-03 00:49:00,
2013-05-02 19:54:00,68.2,62.8,29.98,ESE,112,0.0,-999.0,83,0.00,,,0.08,open2300 v1.10,2013-05-03 00:54:00,
2013-05-02 19:59:00,68.2,63.2,29.98,ESE,112,0.0,-999.0,84,0.00,,,0.08,open2300 v1.10,2013-05-03 00:59:00,
2013-05-02 20:08:00,68.2,63.2,29.98,ESE,112,6.5,-999.0,84,0.00,,,0.08,open2300 v1.10,2013-05-03 01:08:00,
2013-05-02 20:13:00,68.2,63.2,29.98,ESE,112,0.0,-999.0,84,0.00,,,0.08,open2300 v1.10,2013-05-03 01:13:00,
2013-05-02 20:18:00,67.8,63.1,29.98,ESE,112,1.8,-999.0,85,0.00,,,0.08,open2300 v1.10,2013-05-03 01:18:00,
2013-05-02 20:23:00,67.8,63.1,29.98,ESE,112,0.0,-999.0,85,0.00,,,0.08,open2300 v1.10,2013-05-03 01:23:00,
2013-05-02 20:29:00,67.6,63.0,29.98,ESE,112,0.0,-999.0,85,0.00,,,0.08,open2300 v1.10,2013-05-03 01:29:00,
2013-05-02 20:34:00,67.6,63.0,29.98,SE,135,0.0,-999.0,85,0.00,,,0.08,open2300 v1.10,2013-05-03 01:34:00,
2013-05-02 20:39:00,67.3,62.6,29.98,SE,135,0.0,-999.0,85,0.00,,,0.08,open2300 v1.10,2013-05-03 01:39:00,
2013-05-02 20:49:00,67.3,62.9,29.99,ESE,112,0.9,-999.0,86,0.00,,,0.08,open2300 v1.10,2013-05-03 01:49:00,
2013-05-02 20:54:00,67.3,62.9,29.99,ESE,112,0.0,-999.0,86,0.00,,,0.08,open2300 v1.10,2013-05-03 01:54:00,
2013-05-02 20:59:00,67.3,62.9,29.99,ESE,112,6.0,-999.0,86,0.00,,,0.08,open2300 v1.10,2013-05-03 01:59:00,
2013-05-02 21:08:00,67.1,62.7,29.99,ESE,112,1.8,-999.0,86,0.00,,,0.08,open2300 v1.10,2013-05-03 02:08:00,
2013-05-02 21:13:00,67.1,62.7,29.99,SE,135,1.6,-999.0,86,0.00,,,0.08,open2300 v1.10,2013-05-03 02:13:00,
2013-05-02 21:18:00,66.9,62.6,29.99,ESE,112,0.9,-999.0,86,0.00,,,0.08,open2300 v1.10,2013-05-03 02:18:00,
2013-05-02 21:24:00,66.9,62.6,29.99,SE,135,3.6,-999.0,86,0.00,,,0.08,open2300 v1.10,2013-05-03 02:24:00,
2013-05-02 21:29:00,66.7,62.4,29.99,ESE,112,0.0,-999.0,86,0.00,,,0.08,open2300 v1.10,2013-05-03 02:29:00,
2013-05-02 21:34:00,66.7,62.7,29.99,ESE,112,2.9,-999.0,87,0.00,,,0.08,open2300 v1.10,2013-05-03 02:34:00,
2013-05-02 21:39:00,66.7,62.7,29.99,ENE,67,0.0,-999.0,87,0.00,,,0.08,open2300 v1.10,2013-05-03 02:39:00,
2013-05-02 21:44:00,66.7,62.7,29.99,ESE,112,0.0,-999.0,87,0.00,,,0.08,open2300 v1.10,2013-05-03 02:44:00,
2013-05-02 21:49:00,66.7,62.7,29.99,SE,135,0.0,-999.0,87,0.00,,,0.08,open2300 v1.10,2013-05-03 02:49:00,
2013-05-02 21:54:00,66.7,62.7,29.99,East,90,0.0,-999.0,87,0.00,,,0.08,open2300 v1.10,2013-05-03 02:54:00,
2013-05-02 22:03:00,66.6,62.5,29.99,East,90,1.1,-999.0,87,0.00,,,0.08,open2300 v1.10,2013-05-03 03:03:00,
2013-05-02 22:08:00,66.6,62.5,29.99,ESE,112,0.2,-999.0,87,0.00,,,0.08,open2300 v1.10,2013-05-03 03:08:00,
2013-05-02 22:13:00,66.6,62.5,29.98,East,90,5.4,-999.0,87,0.00,,,0.08,open2300 v1.10,2013-05-03 03:13:00,
2013-05-02 22:18:00,66.4,62.7,29.99,ESE,112,5.1,-999.0,88,0.00,,,0.08,open2300 v1.10,2013-05-03 03:18:00,
2013-05-02 22:23:00,66.4,62.7,29.99,ESE,112,6.5,-999.0,88,0.00,,,0.08,open2300 v1.10,2013-05-03 03:23:00,
2013-05-02 22:29:00,66.4,62.7,29.99,ESE,112,3.8,-999.0,88,0.00,,,0.08,open2300 v1.10,2013-05-03 03:29:00,
2013-05-02 22:34:00,66.4,62.7,29.99,East,90,5.8,-999.0,88,0.00,,,0.08,open2300 v1.10,2013-05-03 03:34:00,
2013-05-02 22:39:00,66.2,62.2,29.98,ESE,112,0.9,-999.0,87,0.00,,,0.08,open2300 v1.10,2013-05-03 03:39:00,
2013-05-02 22:49:00,66.0,62.3,29.99,ESE,112,2.9,-999.0,88,0.00,,,0.08,open2300 v1.10,2013-05-03 03:49:00,
2013-05-02 22:54:00,66.0,62.3,29.99,ESE,112,2.0,-999.0,88,0.00,,,0.08,open2300 v1.10,2013-05-03 03:54:00,
2013-05-02 22:59:00,66.0,62.3,29.98,ESE,112,7.2,-999.0,88,0.00,,,0.08,open2300 v1.10,2013-05-03 03:59:00,
2013-05-02 23:03:00,66.0,62.3,29.98,ESE,112,0.0,-999.0,88,0.00,,,0.08,open2300 v1.10,2013-05-03 04:03:00,
2013-05-02 23:08:00,66.0,62.3,29.98,ESE,112,6.9,-999.0,88,0.00,,,0.08,open2300 v1.10,2013-05-03 04:08:00,
2013-05-02 23:13:00,66.0,62.3,29.98,SE,135,6.7,-999.0,88,0.00,,,0.08,open2300 v1.10,2013-05-03 04:13:00,
2013-05-02 23:18:00,65.8,62.2,29.98,ESE,112,5.1,-999.0,88,0.00,,,0.08,open2300 v1.10,2013-05-03 04:18:00,
2013-05-02 23:23:00,65.8,62.2,29.98,SE,135,3.8,-999.0,88,0.00,,,0.08,open2300 v1.10,2013-05-03 04:23:00,
2013-05-02 23:29:00,65.8,62.2,29.98,ESE,112,0.0,-999.0,88,0.00,,,0.08,open2300 v1.10,2013-05-03 04:29:00,
2013-05-02 23:34:00,65.8,62.2,29.98,ESE,112,0.0,-999.0,88,0.00,,,0.08,open2300 v1.10,2013-05-03 04:34:00,
2013-05-02 23:39:00,65.8,62.2,29.98,ESE,112,0.0,-999.0,88,0.00,,,0.08,open2300 v1.10,2013-05-03 04:39:00,
2013-05-02 23:44:00,65.8,62.2,29.98,ESE,112,0.0,-999.0,88,0.00,,,0.08,open2300 v1.10,2013-05-03 04:44:00,
2013-05-02 23:49:00,65.8,62.2,29.98,SE,135,0.4,-999.0,88,0.00,,,0.08,open2300 v1.10,2013-05-03 04:49:00,
2013-05-02 23:54:00,66.0,62.3,29.98,ESE,112,0.0,-999.0,88,0.00,,,0.08,open2300 v1.10,2013-05-03 04:54:00,
2013-05-02 23:59:00,66.0,62.3,29.98,ESE,112,0.0,-999.0,88,0.00,,,0.08,open2300 v1.10,2013-05-03 04:59:00,